Follow on: Twitter | Facebook | LinkedIn
  • 0
    $0
    • No products in the cart.

Home Sound Effects Mechanical Trailer Pulse Clock

Trailer Pulse Clock

$35

Introducing TRAILER PULSE CLOCK, featuring 10 different types of designed clocks. Contains 7 Kontakt 5.6.6 Instruments as well as .wav versions.

Features the following clocks:

Clocks Instruments • Clock Pulse Clean • Clock Pulse FX 1 • Clock Pulse FX 2 • Clock Pulse FX 3 • Clock Pulse Reverb • Clock Pulse Triola
Licensor: TH Studio Production
Categories: , .
Type: Trailer Clocks sound effects / recordings
Specs: 280 files • 280 sounds • 24 Bit / 48 kHz • Not metatagged • 766 MB
Delivery:
Instant - blazingly-fast - digital download
License type:
Single user, royalty-free - for a multi-user license, click here
1.Clock 1- BPM 96 (0:10)
2.Clock 10 BPM 120 (0:08)
3.Clock 1-1- BPM 96 (0:10)
4.Clock 2 – BPM 74.5 (0:06)
5.Clock 2-2 – BPM 74.5 (0:06)
6.Clock 3 -BPM 74 (0:12)
7.Clock 3-3-BPM 74 (0:12)
8.Clock 4-4-BPM 78 (0:06)
9.Clock 4-BPM 78 (0:06)
10.Clock 5 – BPM 99 (0:09)
11.Clock 5-5- BPM 99 (0:09)
12.Clock 6 BPM 127 (0:07)
13.Clock 6-6 BPM 127 (0:07)
14.Clock 7 BPM 80 (0:06)
15.Clock 8 BPM 120 (0:08)
16.Clock 9 BPM 75 (0:12)
17.Clocks FX-BPM 127-02 (0:07)
18.Clocks FX-BPM 127-04 (0:07)
19.Clocks FX-BPM 127-06 (0:07)
20.Clocks FX-BPM 127-09 (0:07)
21.Clocks FX-BPM 127-10 (0:07)
22.Clocks FX-BPM 74.5 – 04 (0:06)
23.Clocks FX-BPM 96 – 04 (0:10)
24.Clocks FX-BPM 96 – 07 (0:10)
25.Clocks FX-BPM 96 – 09 (0:10)
26.Clocks FX-BPM 99-01 (0:04)
27.Clocks FX-BPM 99-05 (0:09)
28.Clocks FX-BPM 99-06 (0:09)
29.Clocks FX-BPM 99-07 (0:09)
30.Clocks FX-BPM 99-08 (0:09)
31.Clocks FX-BPM 99-09 (0:09)
32.Clock 01 Triola BPM 120 (0:08)
33.Clock 02 Triola BPM 120 (0:08)
34.Clock 03 Triola BPM 120 (0:08)
35.Clock 04 Triola BPM 120 (0:08)
36.Clock 05 Triola BPM 120 (0:08)
37.Clock 06 Triola BPM 120 (0:08)
38.Clock 07 Triola BPM 120 (0:08)
39.Clocks FX-BPM 80 – 01 (0:12)
40.Clocks FX-BPM 80 – 02 (0:12)
41.Clocks FX-BPM 80 – 03 (0:12)
42.Clocks FX-BPM 80 – 04 (0:12)
43.Clocks FX-BPM 80 – 05 (0:12)
44.Clocks FX-BPM 80 – 06 (0:12)
45.Clocks FX-BPM 80 – 07 (0:12)
46.Clocks FX-BPM 80 – 08 (0:12)
47.Clocks FX-BPM 80 – 09 (0:12)
48.Clocks FX-BPM 80 – 10 (0:12)
49.Clocks FX-BPM 80 – 11 (0:12)
50.Clocks FX-BPM 80 – 12 (0:12)
51.Clocks FX-BPM 80 – 13 (0:12)
52.Clocks FX-BPM 80 – 15 (0:12)
53.Clocks FX-BPM 80 – 16 (0:12)
54.Clocks FX-BPM 80 – 17 (0:12)
55.Clocks FX-BPM 80 – 19 (0:12)
56.Clocks FX-BPM 80 – 21 (0:12)
57.Clocks FX-BPM 80 – 24 (0:12)
58.Clocks FX-BPM 80 – 26 (0:12)
59.Clocks FX-BPM 80 – 27 (0:12)
60.Clocks FX-BPM 80 – 28 (0:12)
61.Clocks FX-BPM 80 – 29 (0:12)
62.Clocks FX-BPM 127-01 (0:07)
63.Clocks FX-BPM 127-03 (0:07)
64.Clocks FX-BPM 127-05 (0:07)
65.Clocks FX-BPM 127-08 (0:07)
66.Clocks FX-BPM 74.5 – 01 (0:12)
67.Clocks FX-BPM 74.5 – 02 (0:12)
68.Clocks FX-BPM 74.5 – 03 (0:12)
69.Clocks FX-BPM 80 – 20 (0:12)
70.Clocks FX-BPM 80 – 22 (0:12)
71.Clocks FX-BPM 80 – 23 (0:12)
72.Clocks FX-BPM 80 – 25 (0:12)
73.Clocks FX-BPM 96 – 01 (0:10)
74.Clocks FX-BPM 96 – 02 (0:10)
75.Clocks FX-BPM 96 – 03 (0:10)
76.Clocks FX-BPM 96 – 05 (0:10)
77.Clocks FX-BPM 96 – 06 (0:10)
78.Clocks FX-BPM 99-02 (0:09)
79.Clocks FX-BPM 99-04 (0:09)
80.Clock 01 Triola BPM 120 (0:08)
81.Clock 02 Triola BPM 120 (0:08)
82.Clock 03 Triola BPM 120 (0:08)
83.Clock 04 Triola BPM 120 (0:08)
84.Clock 05 Triola BPM 120 (0:08)
85.Clock 06 Triola BPM 120 (0:08)
86.Clock 07 Triola BPM 120 (0:08)
87.Clocks FX-BPM 74.5 – 05 (0:06)
88.Clocks FX-BPM 74.5 – 06 (0:12)
89.Clocks FX-BPM 80 – 14 (0:12)
90.Clocks FX-BPM 80 – 18 (0:12)
91.Clocks FX-BPM 99-03 (0:04)
92.Clock one 1
93.Clock one 10
94.Clock one 10-1
95.Clock one 10-2
96.Clock one 10-3
97.Clock one 1-1
98.Clock one 1-2
99.Clock one 1-3
100.Clock one 2
101.Clock one 2-1
102.Clock one 2-2
103.Clock one 2-3
104.Clock one 2-4
105.Clock one 3
106.Clock one 3-1
107.Clock one 3-2
108.Clock one 3-3
109.Clock one 3-4
110.Clock one 4
111.Clock one 4-1
112.Clock one 4-2
113.Clock one 4-3
114.Clock one 4-4
115.Clock one 5
116.Clock one 5-1
117.Clock one 5-2
118.Clock one 5-3
119.Clock one 5-4
120.Clock one 5-5
121.Clock one 6
122.Clock one 6-1
123.Clock one 6-2
124.Clock one 6-3
125.Clock one 6-4
126.Clock one 7
127.Clock one 7-1
128.Clock one 7-2
129.Clock one 7-3
130.Clock one 7-4
131.Clock one 8
132.Clock one 8-1
133.Clock one 8-2
134.Clock one 8-3
135.Clock one 8-4
136.Clock one 9
137.Clock one 9-1
138.Clock one 9-2
139.Clock one 9-3
140.Clock one 9-4
141.ARENA A (0:10)
142.ARENA B (0:07)
143.ARENA C (0:10)
144.ARENA D (0:08)
145.BRIGHT CHAMBER (0:03)
146.BRIGHT ROOM (0:05)
147.CATHEDRAL (0:12)
148.CHAINSAW (0:07)
149.COMB A (0:09)
150.COMB B (0:08)
151.DEEP SPACE (0:19)
152.DEGRADED (0:08)
153.EFFECTIVE (0:06)
154.FX FILTER (0:05)
155.GHOST FADE (0:05)
156.GRANULAR (0:08)
157.HIGHPASS (0:07)
158.IMPACT (0:03)
159.JETLAG (0:07)
160.METAL A (0:10)
161.METAL B (0:08)
162.METAL DELAY (0:08)
163.PHASING (0:08)
164.PIANO A (0:03)
165.PIANO B (0:03)
166.PIANO C (0:08)
167.PITCH UP
168.PLATE (0:04)
169.REVERSED (0:07)
170.SMALL A
171.SMALL B
172.SPACE A (0:11)
173.SPACE B (0:15)
174.SPACE C (0:15)
175.SPACE D (0:15)
176.SPACE E (0:07)
177.SPACE F (0:23)
178.SPACE G (0:03)
179.SPACE H (0:03)
180.SPECIAL A (0:04)
181.SPECIAL B (0:08)
182.SPECIAL C (0:04)
183.SPECIAL D (0:07)
184.SPECIAL E (0:05)
185.SPIN DOWN (0:03)
186.SPRING A (0:03)
187.SPRING B (0:04)
188.SPRING C (0:04)
189.SPRING D (0:08)
190.SPRING E (0:08)
191.STRETCHED (0:12)
192.SUPERLONG A (0:15)
193.SUPERLONG B (0:12)
194.TRANSFORM (0:08)
195.TUNNELWARP (0:09)
196.WATER (0:09)
197.WOOD A (0:03)
198.WOOD B
199.WOOD C (0:01)
200.WOOD D
201.Clock 1- BPM 96 (0:10)
202.Clock 10 BPM 120 (0:08)
203.Clock 1-1- BPM 96 (0:10)
204.Clock 2 – BPM 74.5 (0:06)
205.Clock 2-2 – BPM 74.5 (0:06)
206.Clock 3 -BPM 74 (0:12)
207.Clock 3-3-BPM 74 (0:12)
208.Clock 4-4-BPM 78 (0:06)
209.Clock 4-BPM 78 (0:06)
210.Clock 5 – BPM 99 (0:09)
211.Clock 5-5- BPM 99 (0:09)
212.Clock 6 BPM 127 (0:07)
213.Clock 6-6 BPM 127 (0:07)
214.Clock 7 BPM 80 (0:06)
215.Clock 8 BPM 120 (0:08)
216.Clock 9 BPM 75 (0:12)
217.Clocks FX-BPM 127-02 (0:07)
218.Clocks FX-BPM 127-04 (0:07)
219.Clocks FX-BPM 127-06 (0:07)
220.Clocks FX-BPM 127-09 (0:07)
221.Clocks FX-BPM 127-10 (0:07)
222.Clocks FX-BPM 74.5 – 04 (0:06)
223.Clocks FX-BPM 96 – 04 (0:10)
224.Clocks FX-BPM 96 – 07 (0:10)
225.Clocks FX-BPM 96 – 08 (0:10)
226.Clocks FX-BPM 96 – 09 (0:10)
227.Clocks FX-BPM 99-01 (0:04)
228.Clocks FX-BPM 99-05 (0:09)
229.Clocks FX-BPM 99-06 (0:09)
230.Clocks FX-BPM 99-07 (0:09)
231.Clocks FX-BPM 99-08 (0:09)
232.Clocks FX-BPM 99-09 (0:09)
233.Clock 01 Triola BPM 120 (0:08)
234.Clock 02 Triola BPM 120 (0:08)
235.Clock 03 Triola BPM 120 (0:08)
236.Clock 04 Triola BPM 120 (0:08)
237.Clock 05 Triola BPM 120 (0:08)
238.Clock 06 Triola BPM 120 (0:08)
239.Clock 07 Triola BPM 120 (0:08)
240.Clocks FX-BPM 80 – 01 (0:12)
241.Clocks FX-BPM 80 – 02 (0:12)
242.Clocks FX-BPM 80 – 03 (0:12)
243.Clocks FX-BPM 80 – 04 (0:12)
244.Clocks FX-BPM 80 – 05 (0:12)
245.Clocks FX-BPM 80 – 06 (0:12)
246.Clocks FX-BPM 80 – 07 (0:12)
247.Clocks FX-BPM 80 – 08 (0:12)
248.Clocks FX-BPM 80 – 09 (0:12)
249.Clocks FX-BPM 80 – 10 (0:12)
250.Clocks FX-BPM 80 – 11 (0:12)
251.Clocks FX-BPM 80 – 12 (0:12)
252.Clocks FX-BPM 80 – 13 (0:12)
253.Clocks FX-BPM 80 – 15 (0:12)
254.Clocks FX-BPM 80 – 16 (0:12)
255.Clocks FX-BPM 80 – 17 (0:12)
256.Clocks FX-BPM 80 – 19 (0:12)
257.Clocks FX-BPM 80 – 21 (0:12)
258.Clocks FX-BPM 80 – 24 (0:12)
259.Clocks FX-BPM 80 – 26 (0:12)
260.Clocks FX-BPM 80 – 27 (0:12)
261.Clocks FX-BPM 80 – 28 (0:12)
262.Clocks FX-BPM 80 – 29 (0:12)
263.Clock one 1
264.Clock one 10
265.Clock one 10-1
266.Clock one 10-2
267.Clock one 10-3
268.Clock one 1-1
269.Clock one 1-2
270.Clock one 1-3
271.Clock one 2
272.Clock one 2-1
273.Clock one 2-2
274.Clock one 2-3
275.Clock one 2-4
276.Clock one 3
277.Clock one 3-1
278.Clock one 3-2
279.Clock one 3-3
280.Clock one 3-4
281.Clock one 4
282.Clock one 4-1
283.Clock one 4-2
284.Clock one 4-3
285.Clock one 4-4
286.Clock one 5
287.Clock one 5-1
288.Clock one 5-2
289.Clock one 5-3
290.Clock one 5-4
291.Clock one 5-5
292.Clock one 6
293.Clock one 6-1
294.Clock one 6-2
295.Clock one 6-3
296.Clock one 6-4
297.Clock one 7
298.Clock one 7-1
299.Clock one 7-2
300.Clock one 7-3
301.Clock one 7-4
302.Clock one 8
303.Clock one 8-1
304.Clock one 8-2
305.Clock one 8-3
306.Clock one 8-4
307.Clock one 9
308.Clock one 9-1
309.Clock one 9-2
310.Clock one 9-3
311.Clock one 9-4
312.Clocks FX-BPM 127-01 (0:07)
313.Clocks FX-BPM 127-03 (0:07)
314.Clocks FX-BPM 127-05 (0:07)
315.Clocks FX-BPM 127-08 (0:07)
316.Clocks FX-BPM 74.5 – 01 (0:12)
317.Clocks FX-BPM 74.5 – 02 (0:12)
318.Clocks FX-BPM 74.5 – 03 (0:12)
319.Clocks FX-BPM 80 – 20 (0:12)
320.Clocks FX-BPM 80 – 22 (0:12)
321.Clocks FX-BPM 80 – 23 (0:12)
322.Clocks FX-BPM 80 – 25 (0:12)
323.Clocks FX-BPM 96 – 01 (0:10)
324.Clocks FX-BPM 96 – 02 (0:10)
325.Clocks FX-BPM 96 – 03 (0:10)
326.Clocks FX-BPM 96 – 05 (0:10)
327.Clocks FX-BPM 96 – 06 (0:10)
328.Clocks FX-BPM 99-02 (0:09)
329.Clocks FX-BPM 99-04 (0:09)
330.Clock 01 Triola BPM 120 (0:08)
331.Clock 02 Triola BPM 120 (0:08)
332.Clock 03 Triola BPM 120 (0:08)
333.Clock 04 Triola BPM 120 (0:08)
334.Clock 05 Triola BPM 120 (0:08)
335.Clock 06 Triola BPM 120 (0:08)
336.Clock 07 Triola BPM 120 (0:08)
337.Clocks FX-BPM 74.5 – 05 (0:06)
338.Clocks FX-BPM 74.5 – 06 (0:12)
339.Clocks FX-BPM 80 – 14 (0:12)
340.Clocks FX-BPM 80 – 18 (0:12)
341.Clocks FX-BPM 99-03 (0:04)

Reviews

There are no reviews yet!

Be the first to write a review

*

TH Studio Production is music and sounds designs company  based in Bulgaria . We strive to provide highly usable sounds for games, film, television, entertainment and the web that can easily be added as layers or quickly become a final asset. We are always looking for the highest quality of sounds .